Time;durP1;ratioP1;P1;durP2;ratioP2;P2;SDS_P1;SDS_P2;PMS_P1;PMS_P2;Temp;Humidity;BMP_temperature;BMP_pressure;BME280_temperature;BME280_humidity;BME280_pressure;Samples;Min_cycle;Max_cycle;Signal;HPM_P1;HPM_P2
2022/01/28 00:06:44;;;;;;;7.57;4.60;;;5.40;92.20;;;6.28;64.19;99913.41;6210688;22;115270;-89
2022/01/28 00:41:19;;;;;;;4.77;4.27;;;4.70;92.10;;;6.23;64.67;99932.53;6209872;22;123618;-89
2022/01/28 00:47:27;;;;;;;6.50;3.97;;;6.00;92.30;;;6.27;64.24;99945.50;6211352;22;115002;-88
2022/01/28 00:50:51;;;;;;;6.63;4.33;;;4.80;91.60;;;6.30;64.35;99933.19;6209293;22;122816;-85
2022/01/28 00:57:55;;;;;;;6.20;4.40;;;5.00;91.70;;;6.29;64.15;99937.84;6208928;22;116212;-91
2022/01/28 01:04:05;;;;;;;4.47;3.97;;;4.70;91.50;;;6.20;63.80;99939.38;6211701;22;125145;-76
2022/01/28 01:10:14;;;;;;;5.73;3.90;;;4.80;91.40;;;6.17;63.75;99928.91;6211834;22;115435;-90
2022/01/28 02:01:47;;;;;;;4.53;3.40;;;5.60;91.40;;;5.98;62.94;99975.03;6167541;22;98932;-87
2022/01/28 02:08:04;;;;;;;3.53;3.10;;;5.20;91.20;;;6.02;62.81;99986.31;6243641;22;126011;-75
2022/01/28 02:14:13;;;;;;;6.30;3.53;;;4.50;90.90;;;5.96;63.38;99999.13;6244210;22;115026;-75
2022/01/28 02:20:33;;;;;;;4.97;3.73;;;4.90;91.00;;;5.95;62.70;100005.72;6244350;22;124738;-77
2022/01/28 02:26:41;;;;;;;4.30;3.13;;;5.60;91.20;;;5.94;62.88;100012.28;6243884;22;115027;-75
2022/01/28 02:32:51;;;;;;;5.20;3.60;;;5.60;91.20;;;5.95;62.31;100009.28;6243695;22;124702;-81
2022/01/28 02:39:00;;;;;;;6.70;3.87;;;5.60;91.20;;;5.93;63.04;100005.09;6244124;22;115052;-76
2022/01/28 02:45:09;;;;;;;4.77;3.63;;;5.50;91.20;;;5.90;62.89;100016.56;6243611;22;124715;-76
2022/01/28 02:47:38;;;;;;;5.30;3.60;;;5.50;91.20;;;5.92;63.14;100007.03;6243707;22;116611;-75
2022/01/28 02:53:59;;;;;;;4.30;3.00;;;5.50;91.10;;;5.89;63.06;100002.03;6243068;22;125204;-75
2022/01/28 03:00:08;;;;;;;5.67;3.53;;;5.50;91.10;;;5.84;62.64;100012.94;6243331;22;116330;-83
2022/01/28 03:02:34;;;;;;;5.70;3.27;;;5.50;91.10;;;5.85;62.21;100013.75;6242884;22;115095;-77
2022/01/28 03:08:51;;;;;;;6.07;3.30;;;5.50;91.10;;;5.81;62.55;100016.19;6243565;22;124745;-74
2022/01/28 04:36:56;;;;;;;9.30;4.30;;;5.50;90.50;;;5.87;61.80;100100.19;6182174;22;98921;-90
2022/01/28 04:43:14;;;;;;;5.47;3.60;;;4.20;90.00;;;5.88;61.95;100114.72;6242678;22;115357;-87
2022/01/28 04:52:15;;;;;;;5.20;4.20;;;5.30;90.40;;;5.84;62.02;100141.00;6242653;22;124778;-85
2022/01/28 05:27:13;;;;;;;7.70;4.83;;;6.70;91.20;;;5.64;61.83;100164.25;6123552;22;124947;-80
2022/01/28 05:30:20;;;;;;;8.27;4.80;;;5.10;90.50;;;5.60;62.28;100152.09;6177809;22;123581;-82
2022/01/28 05:36:29;;;;;;;17.50;6.53;;;5.10;90.60;;;5.46;62.12;100169.94;6181043;22;114849;-89
2022/01/28 05:42:38;;;;;;;6.40;4.40;;;5.10;90.70;;;5.39;62.34;100156.38;6180490;22;124308;-82
2022/01/28 05:48:46;;;;;;;10.60;4.80;;;5.10;90.80;;;5.40;62.75;100173.63;6179268;22;115033;-90
2022/01/28 05:51:32;;;;;;;11.63;5.27;;;5.00;90.80;;;5.42;62.70;100174.22;6175352;22;124813;-88
2022/01/28 05:57:41;;;;;;;8.23;4.50;;;5.00;90.80;;;5.39;62.51;100180.22;6177444;22;116223;-91
2022/01/28 06:01:06;;;;;;;9.13;5.67;;;5.00;90.80;;;5.41;62.67;100186.28;6178071;22;115614;-91
2022/01/28 06:03:35;;;;;;;7.70;5.30;;;5.00;90.90;;;5.39;62.67;100191.16;6175972;22;122990;-91
2022/01/28 06:06:40;;;;;;;8.67;5.10;;;5.00;90.80;;;5.42;62.60;100196.16;6143322;23;124419;-91
2022/01/28 06:13:25;;;;;;;6.67;4.40;;;5.00;90.90;;;5.41;62.16;100209.03;6116999;23;115324;-90
2022/01/28 06:15:55;;;;;;;7.30;5.43;;;5.00;90.90;;;5.38;62.42;100212.28;6090432;23;122484;-89
2022/01/28 06:18:59;;;;;;;8.33;5.30;;;5.00;90.80;;;5.41;62.60;100211.78;6097920;23;124426;-90
2022/01/28 06:22:22;;;;;;;10.27;5.37;;;5.00;90.80;;;5.42;62.19;100209.88;6086388;23;114969;-90
2022/01/28 06:25:09;;;;;;;6.83;4.87;;;5.00;90.80;;;5.43;62.37;100222.50;6087291;23;114186;-90
2022/01/28 06:27:37;;;;;;;7.30;4.67;;;5.00;90.80;;;5.43;62.61;100219.78;6085023;23;124714;-90
2022/01/28 06:30:43;;;;;;;9.03;5.47;;;5.00;90.80;;;5.47;62.00;100242.84;6064634;23;121607;-90
2022/01/28 06:36:51;;;;;;;6.93;4.63;;;5.10;90.90;;;5.51;62.88;100261.31;6095864;23;115004;-89
2022/01/28 06:46:27;;;;;;;6.27;5.27;;;5.10;90.90;;;5.56;62.42;100279.75;6121504;22;115312;-82
2022/01/28 06:49:12;;;;;;;6.53;4.40;;;5.20;90.90;;;5.59;62.63;100284.78;6119501;23;114752;-91
2022/01/28 06:51:59;;;;;;;11.37;5.33;;;5.20;90.80;;;5.57;61.68;100289.69;6116649;23;124585;-92
2022/01/28 06:54:28;;;;;;;8.80;5.27;;;5.20;90.80;;;5.57;62.11;100292.41;6119399;23;123336;-90
2022/01/28 06:57:32;;;;;;;7.93;5.43;;;6.60;91.40;;;5.59;62.56;100279.31;6117305;23;115050;-90
2022/01/28 07:04:00;;;;;;;12.37;5.10;;;5.20;90.70;;;5.55;61.91;100297.31;6111483;23;125094;-91
2022/01/28 07:07:25;;;;;;;8.90;5.37;;;5.10;90.70;;;5.53;61.78;100286.59;6117858;22;123520;-90
2022/01/28 07:13:33;;;;;;;9.87;5.53;;;5.10;90.60;;;5.41;62.75;100287.69;6114492;23;115064;-90
2022/01/28 07:16:40;;;;;;;12.83;6.50;;;5.10;90.70;;;5.45;61.95;100283.38;6120853;23;124581;-90
2022/01/28 07:19:44;;;;;;;11.40;6.17;;;5.10;90.80;;;5.43;61.97;100272.66;6145982;23;123612;-90
2022/01/28 07:25:52;;;;;;;8.83;5.30;;;5.00;90.70;;;5.35;63.04;100292.22;6143667;23;115013;-91
2022/01/28 07:28:41;;;;;;;9.73;5.50;;;5.00;90.80;;;5.35;62.49;100288.63;6146275;23;123969;-91
2022/01/28 07:32:04;;;;;;;11.87;5.90;;;5.00;90.90;;;5.30;63.23;100284.72;6149936;22;123758;-80
2022/01/28 07:35:11;;;;;;;10.07;5.90;;;4.90;90.80;;;5.28;63.02;100297.84;6150395;23;114948;-90
2022/01/28 07:41:19;;;;;;;12.50;6.23;;;4.90;90.90;;;5.26;62.61;100313.66;6146741;23;124630;-90
2022/01/28 07:44:07;;;;;;;10.60;6.37;;;4.90;90.90;;;5.30;62.74;100323.09;6165423;22;122966;-90
2022/01/28 07:47:11;;;;;;;10.10;5.77;;;4.90;91.00;;;5.30;62.93;100325.84;6145163;23;114845;-91
2022/01/28 07:49:39;;;;;;;7.00;5.00;;;4.90;91.00;;;5.29;63.16;100328.81;6149533;22;114759;-91
2022/01/28 07:52:09;;;;;;;10.10;5.63;;;4.90;91.00;;;5.31;62.55;100323.91;6144817;23;123951;-90
2022/01/28 07:54:57;;;;;;;9.60;6.30;;;4.90;91.00;;;5.38;63.26;100323.81;6142004;23;124486;-91
2022/01/28 07:57:26;;;;;;;9.20;5.90;;;4.90;91.00;;;5.38;62.70;100319.16;6147170;23;116151;-90
2022/01/28 07:59:53;;;;;;;9.83;6.27;;;4.90;91.00;;;5.41;62.68;100309.63;6173374;22;114216;-82
2022/01/28 08:02:39;;;;;;;8.20;4.63;;;5.00;91.00;;;5.47;62.49;100325.91;6145304;22;124864;-89
2022/01/28 08:05:07;;;;;;;8.57;5.20;;;5.00;91.00;;;5.49;62.78;100328.44;6145514;23;123112;-91
2022/01/28 08:07:33;;;;;;;9.87;5.70;;;5.10;91.00;;;5.53;61.91;100351.53;6145502;23;113193;-90
2022/01/28 08:10:05;;;;;;;6.97;5.57;;;5.10;90.90;;;5.52;62.29;100339.75;6150143;22;113392;-83
2022/01/28 08:13:28;;;;;;;10.70;5.97;;;5.60;91.10;;;5.58;62.04;100337.09;6150670;22;124176;-81
2022/01/28 08:15:56;;;;;;;8.00;4.43;;;5.10;90.80;;;5.59;63.08;100333.28;6148684;22;124422;-86
2022/01/28 08:18:42;;;;;;;9.57;4.87;;;5.20;90.90;;;5.66;62.24;100347.69;6142500;23;113623;-84
2022/01/28 08:21:10;;;;;;;7.53;5.30;;;5.20;90.80;;;5.67;62.07;100346.63;6141720;23;112132;-85
2022/01/28 08:27:19;;;;;;;6.10;4.60;;;5.30;90.70;;;5.76;61.74;100356.97;6146307;23;124698;-89
2022/01/28 08:29:47;;;;;;;5.90;4.23;;;5.30;90.70;;;5.81;62.05;100369.13;6113365;23;113506;-89
2022/01/28 08:32:53;;;;;;;8.10;4.77;;;5.30;90.60;;;5.85;61.06;100375.78;6109572;23;113535;-88
2022/01/28 08:35:43;;;;;;;8.53;4.73;;;5.40;90.50;;;5.88;61.15;100367.91;6113081;23;123769;-90
2022/01/28 08:38:37;;;;;;;9.30;4.50;;;5.40;90.40;;;5.91;61.01;100381.16;6085882;23;124327;-90
2022/01/28 08:41:06;;;;;;;5.90;4.10;;;5.40;90.40;;;5.94;60.64;100379.88;6060227;23;112739;-90
2022/01/28 08:43:52;;;;;;;7.47;4.20;;;5.50;90.40;;;6.02;60.72;100392.34;6088430;23;113197;-81
2022/01/28 08:46:38;;;;;;;4.93;3.90;;;5.50;90.30;;;6.05;60.48;100391.88;6087832;23;124927;-89
2022/01/28 08:49:05;;;;;;;6.47;3.73;;;5.50;90.20;;;6.04;60.19;100395.69;6078248;23;123754;-90
2022/01/28 08:51:50;;;;;;;9.73;5.40;;;5.60;90.10;;;6.09;59.81;100401.28;6102944;23;114326;-91
2022/01/28 08:54:18;;;;;;;6.33;4.30;;;5.60;90.00;;;6.08;59.95;100403.19;6105732;23;114520;-91
2022/01/28 08:57:43;;;;;;;7.90;5.00;;;5.60;90.00;;;6.12;60.31;100400.78;6109637;23;124750;-92
2022/01/28 09:00:21;;;;;;;10.00;4.87;;;5.70;89.80;;;6.13;60.31;100400.56;6115496;23;123086;-91
2022/01/28 09:02:49;;;;;;;7.70;4.80;;;5.70;89.70;;;6.15;59.50;100392.06;6132742;23;114379;-90
2022/01/28 09:05:35;;;;;;;10.13;5.30;;;5.70;89.60;;;6.19;59.50;100398.75;6139050;23;114611;-90
2022/01/28 09:08:40;;;;;;;7.20;4.13;;;5.70;89.30;;;6.22;59.83;100398.25;6139615;23;124779;-90
2022/01/28 09:11:53;;;;;;;6.27;3.70;;;5.70;89.10;;;6.23;59.54;100396.34;6136831;23;123491;-90
2022/01/28 09:14:22;;;;;;;8.70;4.13;;;5.80;89.10;;;6.20;59.76;100394.91;6130754;23;113889;-91
2022/01/28 09:16:49;;;;;;;7.33;3.93;;;5.80;88.90;;;6.24;59.67;100387.03;6131820;23;114479;-89
2022/01/28 09:20:14;;;;;;;6.30;4.07;;;6.40;89.40;;;6.31;59.65;100396.78;6131946;23;123394;-90
2022/01/28 09:23:03;;;;;;;7.33;3.93;;;5.80;88.80;;;6.35;59.61;100388.91;6136079;23;122857;-90
2022/01/28 09:25:31;;;;;;;7.27;3.80;;;5.90;88.70;;;6.36;58.95;100387.81;6141881;23;113701;-90
2022/01/28 09:27:58;;;;;;;5.67;3.47;;;5.90;88.60;;;6.41;59.10;100385.16;6145232;23;114350;-92
2022/01/28 09:30:25;;;;;;;7.30;4.17;;;5.90;88.40;;;6.47;59.02;100391.59;6145320;23;123586;-91
2022/01/28 09:32:53;;;;;;;10.10;4.23;;;6.00;88.40;;;6.53;58.98;100391.44;6139075;23;123289;-90
2022/01/28 09:35:23;;;;;;;7.93;4.13;;;6.00;88.30;;;6.58;58.64;100393.44;6131761;23;114298;-91
2022/01/28 09:38:29;;;;;;;9.40;5.17;;;6.10;88.10;;;6.63;58.37;100399.84;6142448;23;113699;-91
2022/01/28 09:40:56;;;;;;;9.63;3.60;;;7.60;89.30;;;6.69;58.55;100397.19;6159310;22;122556;-91
2022/01/28 09:43:26;;;;;;;6.50;3.23;;;6.20;87.90;;;6.74;57.84;100405.53;6137191;23;123230;-90
2022/01/28 09:45:54;;;;;;;5.67;3.47;;;6.20;87.40;;;6.80;58.14;100410.06;6132525;23;115076;-91
2022/01/28 09:49:16;;;;;;;5.37;2.83;;;6.30;87.50;;;6.89;57.14;100391.25;6142570;23;114130;-90
2022/01/28 09:51:45;;;;;;;8.20;3.20;;;6.30;86.90;;;6.92;57.43;100397.06;6143702;22;123216;-85
2022/01/28 09:54:31;;;;;;;5.23;2.83;;;6.40;86.50;;;6.98;56.17;100407.03;6149221;22;123374;-90
2022/01/28 09:56:59;;;;;;;5.73;2.90;;;6.50;85.70;;;7.01;56.19;100405.72;6170186;22;113913;-90
2022/01/28 09:59:26;;;;;;;9.17;2.93;;;6.50;85.70;;;7.07;56.09;100412.97;6141274;23;113425;-91
2022/01/28 10:01:55;;;;;;;7.93;3.87;;;6.60;85.70;;;7.15;56.58;100411.75;6140868;23;123496;-92
2022/01/28 10:04:42;;;;;;;7.80;2.90;;;6.60;85.60;;;7.24;56.10;100412.97;6167608;22;123023;-91
2022/01/28 10:08:00;;;;;;;5.93;2.77;;;6.70;85.70;;;7.34;55.54;100415.06;6131973;23;113701;-92
2022/01/28 10:11:23;;;;;;;10.00;3.17;;;6.80;85.30;;;7.38;55.12;100422.53;6138649;23;112328;-91
2022/01/28 10:13:55;;;;;;;6.63;2.80;;;6.80;84.60;;;7.40;55.28;100425.88;6141209;23;124096;-91
2022/01/28 10:17:18;;;;;;;6.87;3.30;;;6.90;84.90;;;7.47;55.51;100425.72;6145924;23;123847;-91
2022/01/28 10:20:10;;;;;;;6.83;2.93;;;7.00;84.70;;;7.49;55.07;100421.59;6131872;23;113817;-89
2022/01/28 10:26:34;;;;;;;5.23;2.60;;;7.00;84.20;;;7.53;54.59;100409.03;6145581;22;125178;-92
2022/01/28 10:29:06;;;;;;;9.27;3.27;;;7.00;83.60;;;7.58;54.36;100412.94;6135220;23;123844;-90
2022/01/28 10:31:39;;;;;;;5.73;2.40;;;7.10;83.70;;;7.62;54.45;100397.59;6144309;23;114406;-89
2022/01/28 10:34:23;;;;;;;8.20;3.00;;;7.10;83.40;;;7.67;54.15;100403.16;6135100;23;113244;-90
2022/01/28 10:37:05;;;;;;;5.40;3.13;;;7.30;83.30;;;7.66;54.45;100401.50;6143121;23;123329;-92
2022/01/28 10:40:29;;;;;;;10.33;2.90;;;7.20;83.10;;;7.69;54.39;100390.00;6143032;23;123412;-89
2022/01/28 10:43:52;;;;;;;3.13;2.17;;;7.20;83.10;;;7.75;54.34;100394.47;6141491;23;114594;-91
2022/01/28 10:46:31;;;;;;;5.13;2.23;;;7.30;83.00;;;7.79;53.75;100395.63;6131867;23;114264;-91
2022/01/28 10:49:36;;;;;;;5.33;2.87;;;7.30;82.40;;;7.83;53.66;100388.53;6146596;23;124599;-87
2022/01/28 10:52:12;;;;;;;8.53;2.83;;;7.40;82.40;;;7.88;53.57;100385.00;6163735;22;122268;-91
2022/01/28 10:54:57;;;;;;;9.47;2.70;;;7.40;81.90;;;7.91;53.54;100390.00;6144136;23;114026;-92
2022/01/28 10:58:02;;;;;;;11.53;2.77;;;7.40;81.70;;;7.95;53.05;100389.25;6140935;23;113663;-90
2022/01/28 11:00:34;;;;;;;6.60;2.33;;;7.50;81.70;;;8.00;52.87;100393.97;6137051;23;123129;-91
2022/01/28 11:03:40;;;;;;;5.20;2.33;;;7.50;81.60;;;8.05;52.43;100393.19;6135679;23;123558;-91
2022/01/28 11:06:30;;;;;;;9.70;2.60;;;7.60;80.70;;;8.09;52.24;100416.38;6145426;23;113372;-93
2022/01/28 11:09:36;;;;;;;12.00;2.30;;;7.60;80.90;;;8.06;51.61;100401.22;6139289;23;113440;-92
2022/01/28 11:15:46;;;;;;;11.20;2.90;;;7.60;78.90;;;7.96;50.92;100407.41;6151442;22;124260;-90
2022/01/28 11:18:14;;;;;;;7.03;3.10;;;7.60;78.50;;;7.96;51.18;100410.16;6144908;23;113744;-89
2022/01/28 11:21:06;;;;;;;4.63;1.90;;;7.60;78.60;;;8.00;51.13;100412.41;6146103;23;113677;-92
2022/01/28 11:27:37;;;;;;;5.73;2.13;;;7.60;78.50;;;8.01;51.25;100405.81;6134567;23;124228;-89
2022/01/28 11:30:28;;;;;;;9.50;2.13;;;7.60;78.60;;;8.09;50.91;100410.88;6146851;23;114254;-92
2022/01/28 11:36:37;;;;;;;4.60;2.87;;;7.70;78.20;;;8.14;50.56;100403.50;6150958;23;125118;-82
2022/01/28 11:42:45;;;;;;;3.37;2.00;;;7.80;77.50;;;8.19;49.06;100413.72;6150244;22;116255;-93
2022/01/28 11:49:04;;;;;;;2.97;1.70;;;7.80;75.30;;;8.16;49.12;100406.00;6145451;23;125072;-90
2022/01/28 11:51:52;;;;;;;6.37;2.53;;;7.80;75.80;;;8.18;48.76;100399.13;6147904;23;124513;-85
2022/01/28 11:55:07;;;;;;;10.40;2.77;;;7.80;75.10;;;8.16;48.22;100406.00;6175894;22;114986;-91
2022/01/28 11:58:07;;;;;;;4.13;2.00;;;7.80;74.30;;;8.12;49.00;100399.34;6148552;23;113879;-90
2022/01/28 12:01:11;;;;;;;5.83;2.43;;;7.70;75.10;;;8.08;49.08;100400.94;6141580;23;123105;-91
2022/01/28 12:03:38;;;;;;;6.90;2.60;;;7.70;75.50;;;8.02;49.21;100397.28;6159849;22;123055;-92
2022/01/28 12:06:10;;;;;;;5.10;2.60;;;7.50;75.50;;;8.02;49.33;100404.72;6206684;22;113812;-92
2022/01/28 12:12:45;;;;;;;8.27;2.23;;;9.00;77.00;;;8.04;49.70;100413.56;6211330;22;125043;-89
2022/01/28 12:16:04;;;;;;;6.80;2.07;;;6.70;75.50;;;8.06;49.86;100405.84;6211816;22;124407;-90
2022/01/28 12:19:31;;;;;;;4.97;2.17;;;9.00;77.60;;;8.14;49.56;100408.16;6204562;22;114924;-90
2022/01/28 12:22:17;;;;;;;10.30;2.57;;;7.60;76.30;;;8.19;49.37;100406.34;6196193;22;113256;-92
2022/01/28 12:25:02;;;;;;;2.43;1.80;;;7.70;76.30;;;8.32;49.59;100393.25;6187434;22;123412;-93
2022/01/28 12:27:37;;;;;;;5.23;2.60;;;7.80;76.60;;;8.51;49.22;100394.56;6195083;22;122992;-90
2022/01/28 12:30:13;;;;;;;4.80;2.43;;;7.80;76.90;;;8.74;49.30;100393.44;6184827;22;114636;-89
2022/01/28 12:32:42;;;;;;;4.67;2.17;;;6.40;75.20;;;8.84;48.47;100396.28;6191108;22;113002;-90
2022/01/28 12:35:49;;;;;;;6.80;2.80;;;9.70;77.40;;;8.93;48.69;100393.88;6186963;22;124080;-90
2022/01/28 12:38:22;;;;;;;10.10;2.60;;;8.20;75.80;;;9.05;47.96;100385.41;6194738;22;123174;-92
2022/01/28 12:41:30;;;;;;;6.97;2.40;;;9.90;76.70;;;9.09;47.50;100375.53;6220458;22;114929;-90
2022/01/28 12:44:17;;;;;;;4.20;2.53;;;8.50;74.40;;;9.08;47.85;100379.41;6195761;22;115512;-91
2022/01/28 12:46:58;;;;;;;3.23;2.23;;;8.40;74.50;;;9.06;47.95;100378.84;6205538;22;123228;-91
2022/01/28 12:49:30;;;;;;;9.33;2.80;;;8.60;74.90;;;9.05;47.82;100383.53;6207851;22;123715;-92
2022/01/28 12:52:04;;;;;;;7.67;2.73;;;9.80;75.40;;;9.07;47.77;100388.75;6208508;22;113968;-93
2022/01/28 12:54:50;;;;;;;3.83;2.70;;;8.50;74.50;;;9.07;48.14;100378.56;6209126;22;113316;-92
2022/01/28 12:57:56;;;;;;;7.17;3.30;;;9.40;75.60;;;9.12;48.50;100386.03;6204273;22;123252;-92
2022/01/28 13:00:24;;;;;;;9.57;3.63;;;8.50;74.90;;;9.12;48.31;100380.53;6203555;22;123029;-92
2022/01/28 13:03:24;;;;;;;6.07;3.03;;;8.50;75.70;;;9.07;48.44;100366.69;6198729;22;113780;-91
2022/01/28 13:05:57;;;;;;;9.50;3.47;;;10.10;75.50;;;9.03;48.92;100373.84;6194823;22;113338;-92
2022/01/28 13:08:43;;;;;;;8.33;4.80;;;8.60;75.60;;;9.06;48.79;100381.59;6191934;22;123239;-91
2022/01/28 13:11:12;;;;;;;5.70;3.70;;;8.50;75.30;;;9.14;48.98;100377.53;6194529;22;123892;-94
2022/01/28 13:13:59;;;;;;;6.60;3.83;;;8.50;76.00;;;9.26;49.01;100369.88;6196566;22;114353;-92
2022/01/28 13:16:42;;;;;;;7.00;3.57;;;8.10;75.70;;;9.33;49.42;100377.94;6194864;22;112854;-92
2022/01/28 13:19:53;;;;;;;5.13;2.77;;;8.70;76.20;;;9.36;49.15;100380.16;6197297;22;124525;-91
2022/01/28 13:22:26;;;;;;;9.63;3.33;;;8.50;76.10;;;9.40;49.27;100386.78;6199731;22;123323;-91
2022/01/28 13:24:56;;;;;;;8.17;4.30;;;10.20;76.70;;;9.37;49.33;100404.69;6186357;22;113368;-91
2022/01/28 13:27:41;;;;;;;9.20;4.60;;;8.90;76.40;;;9.29;49.31;100397.78;6188386;22;113175;-90
2022/01/28 13:30:38;;;;;;;8.43;4.53;;;8.90;76.40;;;9.19;49.55;100396.88;6190088;22;123460;-91
2022/01/28 13:33:10;;;;;;;9.10;4.23;;;8.80;76.40;;;9.08;49.78;100398.72;6183545;22;123134;-91
2022/01/28 13:35:39;;;;;;;9.50;5.00;;;8.70;76.50;;;8.99;49.97;100397.50;6181029;22;114385;-90
2022/01/28 13:38:21;;;;;;;6.13;3.97;;;8.60;76.70;;;8.92;50.24;100396.88;6183885;22;114191;-92
2022/01/28 13:40:50;;;;;;;8.60;4.10;;;8.20;76.70;;;8.90;50.50;100397.16;6193743;22;123866;-91
2022/01/28 13:43:20;;;;;;;10.87;5.00;;;8.70;77.40;;;8.85;49.92;100394.38;6193773;22;123835;-91
2022/01/28 13:45:58;;;;;;;7.50;4.60;;;8.50;76.90;;;8.76;50.05;100396.78;6188410;22;113295;-91
2022/01/28 13:48:39;;;;;;;7.63;3.57;;;8.40;76.50;;;8.69;50.33;100400.81;6162946;22;113984;-91
2022/01/28 13:51:09;;;;;;;8.50;4.00;;;8.30;76.60;;;8.63;50.30;100405.47;6192482;22;124327;-90
2022/01/28 13:56:43;;;;;;;9.10;4.50;;;8.20;76.70;;;8.56;50.27;100416.66;6199266;22;113831;-91
2022/01/28 13:59:26;;;;;;;7.47;4.53;;;8.20;76.70;;;8.54;50.10;100394.06;6205194;22;114145;-89
2022/01/28 14:01:56;;;;;;;10.40;4.60;;;8.10;76.70;;;8.50;50.37;100400.34;6202254;22;123727;-92
2022/01/28 14:04:35;;;;;;;7.60;4.00;;;8.10;76.80;;;8.48;50.21;100392.34;6218322;22;123660;-91
2022/01/28 14:07:22;;;;;;;9.77;4.27;;;8.20;77.00;;;8.46;50.34;100404.72;6200426;22;113874;-90
2022/01/28 14:09:56;;;;;;;7.90;4.23;;;8.10;76.80;;;8.45;50.52;100403.06;6196650;22;114378;-92
2022/01/28 14:12:52;;;;;;;7.10;4.20;;;8.00;76.90;;;8.46;50.19;100412.97;6198156;22;122557;-90
2022/01/28 14:15:28;;;;;;;7.07;4.57;;;8.10;77.10;;;8.43;50.34;100407.97;6221688;22;123485;-91
2022/01/28 14:17:56;;;;;;;8.43;4.73;;;8.00;76.90;;;8.39;50.37;100405.75;6216963;22;113715;-90
2022/01/28 14:20:25;;;;;;;9.60;5.40;;;8.00;77.00;;;8.37;50.39;100396.06;6187665;22;113407;-90
2022/01/28 14:22:53;;;;;;;10.03;5.10;;;8.00;77.00;;;8.33;50.54;100400.44;6198358;22;123282;-91
2022/01/28 14:25:41;;;;;;;10.00;5.07;;;7.90;77.10;;;8.30;50.62;100404.53;6223661;22;123203;-91
2022/01/28 14:31:08;;;;;;;8.80;4.80;;;7.90;77.10;;;8.22;50.96;100398.63;6220385;22;114399;-90
2022/01/28 14:34:12;;;;;;;9.20;3.93;;;7.90;77.10;;;8.23;50.69;100394.78;6226198;22;124111;-90
2022/01/28 14:37:00;;;;;;;6.67;4.50;;;7.90;77.30;;;8.23;50.57;100400.31;6234309;22;123236;-91
2022/01/28 14:39:29;;;;;;;10.63;5.20;;;7.80;77.10;;;8.22;50.66;100395.88;6206490;22;113601;-91
2022/01/28 14:42:53;;;;;;;10.90;4.53;;;7.90;77.20;;;8.19;50.68;100398.06;6197787;22;112905;-91
2022/01/28 14:46:17;;;;;;;10.40;5.23;;;7.80;77.00;;;8.14;50.52;100391.66;6234025;22;123165;-91
2022/01/28 14:49:06;;;;;;;8.83;4.40;;;7.80;76.90;;;8.13;50.70;100399.06;6223579;22;123820;-90
2022/01/28 14:51:34;;;;;;;11.03;4.47;;;7.80;77.00;;;8.14;50.83;100391.66;6228611;22;113589;-91
2022/01/28 14:54:27;;;;;;;9.03;4.70;;;7.80;76.90;;;8.15;50.41;100398.84;6205211;22;114331;-91
2022/01/28 14:57:50;;;;;;;10.50;4.30;;;7.80;76.80;;;8.11;50.67;100395.78;6206379;22;124017;-91
2022/01/28 15:00:54;;;;;;;7.47;3.60;;;7.80;76.70;;;8.10;50.54;100405.09;6228249;22;123194;-92
2022/01/28 15:03:20;;;;;;;10.60;4.00;;;7.80;76.70;;;8.10;50.67;100393.25;6197939;22;113259;-88
2022/01/28 15:06:25;;;;;;;10.73;3.70;;;7.90;76.80;;;8.18;50.74;100392.81;6227106;22;113107;-90
2022/01/28 15:09:13;;;;;;;8.23;4.70;;;8.00;76.80;;;8.24;50.35;100396.44;6232220;22;122993;-89
2022/01/28 15:12:18;;;;;;;8.60;4.20;;;8.10;76.40;;;8.25;50.49;100398.09;6232189;22;124337;-91
2022/01/28 15:14:44;;;;;;;5.70;4.10;;;8.10;76.20;;;8.28;50.79;100392.09;6202651;22;113414;-91
2022/01/28 15:17:17;;;;;;;10.67;4.43;;;8.10;76.20;;;8.34;50.13;100391.88;6206938;22;112871;-92
2022/01/28 15:20:42;;;;;;;6.00;4.07;;;8.20;75.90;;;8.33;49.67;100400.44;6232666;22;123856;-90
2022/01/28 15:23:09;;;;;;;7.50;4.03;;;8.20;75.60;;;8.25;50.10;100407.22;6232100;22;124149;-92
2022/01/28 15:36:01;;;;;;;5.50;4.10;;;8.10;76.00;;;8.27;50.13;100395.94;6214741;22;124914;-82
2022/01/28 15:38:34;;;;;;;11.50;4.10;;;8.00;75.80;;;8.27;50.18;100402.25;6241168;22;114501;-91
2022/01/28 15:41:05;;;;;;;8.87;4.13;;;8.00;75.90;;;8.27;50.13;100396.75;6242722;22;114720;-90
2022/01/28 15:43:53;;;;;;;7.47;3.80;;;8.00;75.70;;;8.26;50.24;100384.09;6239793;22;124814;-86
2022/01/28 15:46:53;;;;;;;7.83;3.60;;;8.00;75.90;;;8.22;50.12;100393.97;6242726;22;124421;-88
2022/01/28 15:49:40;;;;;;;6.23;3.70;;;7.90;76.40;;;8.18;49.89;100390.06;6191968;22;113235;-80
2022/01/28 15:52:10;;;;;;;4.90;3.20;;;7.90;75.80;;;8.14;50.30;100402.66;6242290;22;113831;-90
2022/01/28 15:58:20;;;;;;;19.60;7.43;;;7.80;76.00;;;8.02;50.16;100393.72;6241816;22;124936;-90
2022/01/28 16:00:47;;;;;;;10.80;5.17;;;8.00;76.20;;;8.01;50.40;100397.56;6214833;22;114799;-93
2022/01/28 16:03:32;;;;;;;7.50;3.83;;;7.70;76.10;;;7.97;50.44;100403.56;6241151;22;114013;-92
2022/01/28 16:06:19;;;;;;;9.20;4.87;;;7.70;76.20;;;7.94;50.32;100403.25;6179172;22;124882;-91
2022/01/28 16:08:46;;;;;;;6.17;3.00;;;7.60;76.20;;;7.90;50.69;100402.09;6179310;22;123183;-92
2022/01/28 16:11:16;;;;;;;7.00;3.60;;;7.60;76.30;;;7.89;50.60;100395.75;6180751;22;114470;-93
2022/01/28 16:19:53;;;;;;;5.90;4.30;;;7.50;76.60;;;7.78;51.03;100404.97;6180771;22;124603;-91
2022/01/28 16:29:44;;;;;;;7.33;3.97;;;7.40;76.90;;;7.52;51.62;100429.38;6180558;22;125148;-75
2022/01/28 16:35:53;;;;;;;8.63;4.30;;;7.20;77.10;;;7.40;51.46;100441.53;6182200;22;115325;-80
2022/01/28 16:38:20;;;;;;;7.37;4.03;;;7.10;77.30;;;7.41;51.38;100452.28;6181381;22;114747;-80
2022/01/28 16:41:45;;;;;;;15.20;4.37;;;7.10;77.50;;;7.43;51.74;100454.78;6154800;22;123301;-81
2022/01/28 16:48:13;;;;;;;6.77;4.50;;;7.10;77.80;;;7.34;51.79;100454.38;6182029;22;115284;-79
2022/01/28 16:50:58;;;;;;;7.57;4.80;;;7.00;77.80;;;7.29;52.02;100451.53;6175804;22;112864;-85
2022/01/28 16:57:07;;;;;;;10.43;5.03;;;6.90;77.90;;;7.20;52.25;100459.38;6181258;22;124808;-75
2022/01/28 17:09:47;;;;;;;9.60;4.23;;;5.40;77.10;;;7.07;52.30;100454.22;6242254;22;124777;-89
2022/01/28 17:16:16;;;;;;;10.10;4.53;;;6.60;78.30;;;6.98;52.50;100475.75;6238553;22;115029;-90
2022/01/28 17:19:22;;;;;;;9.03;5.10;;;6.50;78.50;;;6.95;52.49;100468.00;6210282;22;122463;-91
2022/01/28 17:22:09;;;;;;;8.10;4.70;;;6.60;78.70;;;6.93;52.81;100467.44;6241392;22;122354;-89
2022/01/28 17:24:56;;;;;;;7.03;4.57;;;5.70;78.00;;;6.93;52.68;100475.69;6241550;22;114334;-84
2022/01/28 17:27:22;;;;;;;8.80;5.00;;;6.30;78.70;;;6.92;53.17;100479.50;6241022;22;114947;-90
2022/01/28 17:29:52;;;;;;;11.87;5.37;;;6.50;79.70;;;6.92;52.99;100479.50;6238409;22;123671;-92
2022/01/28 17:32:18;;;;;;;9.53;5.67;;;4.80;77.50;;;6.88;53.32;100482.97;6239158;22;123299;-91
2022/01/28 17:35:08;;;;;;;8.77;4.83;;;6.40;79.30;;;6.89;53.27;100484.66;6240442;22;113996;-90
2022/01/28 17:37:37;;;;;;;11.33;5.90;;;4.90;77.70;;;6.87;53.16;100482.13;6237593;22;113839;-91
2022/01/28 17:40:08;;;;;;;10.90;6.10;;;5.90;78.50;;;6.85;53.69;100482.41;6239415;22;124664;-91
2022/01/28 17:42:38;;;;;;;9.90;5.40;;;6.30;79.40;;;6.83;53.06;100487.31;6239215;22;122801;-83
2022/01/28 17:45:06;;;;;;;11.60;5.43;;;7.80;80.70;;;6.81;53.83;100497.69;6238205;22;114014;-92
2022/01/28 17:47:56;;;;;;;11.97;5.20;;;6.40;79.60;;;6.84;53.14;100490.88;6237986;22;113340;-88
2022/01/28 17:54:05;;;;;;;10.83;5.27;;;6.30;79.50;;;6.72;53.78;100485.44;6241514;22;124864;-79
2022/01/28 18:00:15;;;;;;;8.60;5.33;;;7.90;81.10;;;6.69;54.22;100496.06;6242415;22;114908;-90
2022/01/28 18:03:39;;;;;;;9.60;4.80;;;6.10;79.60;;;6.75;53.63;100506.09;6241198;22;124063;-76
2022/01/28 18:06:06;;;;;;;10.87;6.00;;;4.90;78.60;;;6.73;53.39;100513.75;6240256;22;122687;-91
2022/01/28 18:09:30;;;;;;;8.77;5.30;;;6.30;79.80;;;6.74;53.30;100504.41;6239424;22;112219;-86
2022/01/28 18:15:39;;;;;;;9.20;5.73;;;5.20;78.90;;;6.64;54.04;100516.88;6242170;22;125164;-76